Olenek, Russia
Current Conditions -  °F | °C
As of 2:00 AM on Saturday 29 Nov 2014 (Local Time) from UEEE Reporting Station
Light Snow Light Snow  
Wind Chill: -27°   Ceiling: 10000
Heat Index: -27°   Visibility: 6mi
Dew Point: -35°   Wind: 0mph
Humidity: 69%   Direction: NA
Pressure: 30.21"   Gusts: NA
Location:  68.51°N, 112.49°E
Report Text: UEEE 281700Z 00000MPS 9999 -SN OVC100 M33/M37 Q1023 NOSIG RMKQFE758 23490150
Loading
Personal Weather Stations






























Interactive Weather Map New forecast layout! Learn more

10-Day Weather Forecast

Advertisements
Track Severe Weather on mobile